Humidity-temperature Sensor

Selected Measurement Type: Air Temperature

 
Air Temperature [°C]     6 entries per hour
Showing data from 2/17/2017 (00:00:00 Z) to 2/16/2017 (00:01:00 Z)
Previous Next [ Day | 3-Days | 7-Days ]
First Last
Prev [ Day | 3-Days | 7-Days ] Next
First Last

Start Time:     :
End Time:     :     
Time (in GMT) :00 :50 :40 :30 :20 :10
Previous Next [ Day | 3-Days | 7-Days ]
First Last
Prev [ Day | 3-Days | 7-Days ] Next
First Last


123 => good data
MM => data is determined as missing
-- => data not received/configured
Back to Top Back to Top
2/17/2017 00:00 to 23:10 26.89 26.69 26.86 26.99 27.04 26.89
2/16/2017 23:00 to 22:10 27.14 27.02 26.99 26.97 26.97 26.94
2/16/2017 22:00 to 21:10 26.95 26.94 26.97 26.88 26.83 26.89
2/16/2017 21:00 to 20:10 -- -- -- -- -- --
2/16/2017 20:00 to 19:10 26.75 26.76 26.83 26.84 26.84 26.84
2/16/2017 19:00 to 18:10 26.91 26.89 26.76 26.93 26.91 26.90
2/16/2017 18:00 to 17:10 26.93 26.87 26.96 27.00 26.94 26.90
2/16/2017 17:00 to 16:10 26.91 26.83 26.94 26.84 26.89 26.81
2/16/2017 16:00 to 15:10 26.75 26.92 26.91 26.76 26.74 26.59
2/16/2017 15:00 to 14:10 26.43 26.32 26.42 26.38 26.37 26.46
2/16/2017 14:00 to 13:10 26.37 26.40 26.38 26.41 26.32 26.34
2/16/2017 13:00 to 12:10 26.34 26.39 26.31 26.48 26.37 26.44
2/16/2017 12:00 to 11:10 26.37 26.38 26.43 26.37 26.40 26.34
2/16/2017 11:00 to 10:10 26.41 26.40 26.41 26.40 26.42 26.43
2/16/2017 10:00 to 9:10 26.46 26.42 26.50 26.47 26.52 26.46
2/16/2017 09:00 to 8:10 26.33 26.18 26.50 26.58 26.56 26.50
2/16/2017 08:00 to 7:10 26.61 26.63 26.69 26.69 26.67 26.73
2/16/2017 07:00 to 6:10 26.32 26.37 26.79 26.84 26.81 26.84
2/16/2017 06:00 to 5:10 26.78 26.80 26.88 26.69 26.54 26.37
2/16/2017 05:00 to 4:10 26.07 26.41 26.80 26.70 26.75 26.79
2/16/2017 04:00 to 3:10 26.80 26.70 26.81 26.74 26.74 26.84
2/16/2017 03:00 to 2:10 26.73 26.75 26.81 26.82 26.85 26.91
2/16/2017 02:00 to 1:10 26.73 26.55 26.85 26.74 26.86 26.92
2/16/2017 01:00 to 0:10 26.94 26.88 26.92 26.88 26.93 26.93